createdAt,value
2019-03-31T00:01:24.800Z,42.38
2019-03-31T00:02:31.613Z,42.13
2019-03-31T00:03:38.423Z,42.71
2019-03-31T00:04:45.188Z,43.48
2019-03-31T00:05:50.718Z,43.03
2019-03-31T00:06:56.731Z,43.42
2019-03-31T00:08:03.613Z,43.17
2019-03-31T00:09:09.827Z,42.54
2019-03-31T00:10:15.601Z,42.67
2019-03-31T00:11:21.955Z,42.25
2019-03-31T00:12:29.486Z,42.46
2019-03-31T00:13:36.375Z,43.07
2019-03-31T00:14:41.863Z,42.92
2019-03-31T00:15:47.297Z,42.87
2019-03-31T00:16:54.713Z,42.52
2019-03-31T00:18:02.405Z,42.40
2019-03-31T00:19:12.365Z,42.22
2019-03-31T00:20:19.734Z,42.28
2019-03-31T00:21:33.460Z,43.55
2019-03-31T00:22:39.896Z,45.18
2019-03-31T00:23:47.232Z,46.40
2019-03-31T00:24:53.757Z,46.19
2019-03-31T00:26:00.248Z,44.44
2019-03-31T00:27:06.653Z,43.98
2019-03-31T00:28:12.409Z,43.66
2019-03-31T00:29:18.619Z,44.55
2019-03-31T00:30:26.417Z,44.55
2019-03-31T00:31:33.245Z,44.62
2019-03-31T00:32:40.401Z,44.42
2019-03-31T00:33:48.059Z,44.20
2019-03-31T00:34:55.064Z,43.92
2019-03-31T00:36:01.120Z,43.44
2019-03-31T00:37:07.966Z,43.20
2019-03-31T00:38:15.212Z,43.68
2019-03-31T00:39:22.837Z,43.84
2019-03-31T00:40:30.200Z,43.92
2019-03-31T00:41:35.875Z,44.24
2019-03-31T00:42:42.719Z,44.28
2019-03-31T00:43:49.030Z,44.39
2019-03-31T00:44:54.873Z,44.61
2019-03-31T00:46:01.245Z,44.26
2019-03-31T00:47:06.798Z,43.97
2019-03-31T00:48:13.007Z,44.90
2019-03-31T00:49:19.609Z,45.21
2019-03-31T00:50:26.176Z,45.11
2019-03-31T00:51:32.968Z,45.79
2019-03-31T00:52:39.723Z,45.30
2019-03-31T00:53:45.942Z,45.27
2019-03-31T00:54:52.432Z,45.97
2019-03-31T00:55:59.782Z,46.23
2019-03-31T00:57:05.812Z,45.68
2019-03-31T00:58:11.289Z,45.73
2019-03-31T00:59:17.470Z,45.68
2019-03-31T01:00:43.313Z,46.73
2019-03-31T01:01:55.055Z,47.00
2019-03-31T01:03:01.285Z,45.82
2019-03-31T01:04:07.845Z,45.83
2019-03-31T01:05:13.707Z,45.41
2019-03-31T01:06:21.447Z,45.76
2019-03-31T01:07:47.708Z,45.38
2019-03-31T01:08:54.566Z,45.27
2019-03-31T01:10:00.431Z,45.87
2019-03-31T01:11:13.605Z,44.91
2019-03-31T01:12:20.655Z,45.16
2019-03-31T01:13:26.998Z,45.10
2019-03-31T01:14:33.890Z,45.43
2019-03-31T01:15:39.862Z,45.83
2019-03-31T01:16:46.311Z,46.07
2019-03-31T01:17:53.121Z,45.87
2019-03-31T01:18:59.872Z,45.90
2019-03-31T01:20:05.767Z,45.54
2019-03-31T01:21:21.768Z,45.81
2019-03-31T01:22:27.528Z,45.14
2019-03-31T01:23:33.587Z,45.91
2019-03-31T01:24:40.152Z,45.82
2019-03-31T01:25:45.904Z,45.43
2019-03-31T01:26:52.467Z,45.68
2019-03-31T01:27:58.319Z,46.31
2019-03-31T01:29:04.833Z,46.89
2019-03-31T01:30:11.998Z,46.64
2019-03-31T01:31:18.350Z,47.26
2019-03-31T01:32:25.205Z,47.52
2019-03-31T01:33:31.163Z,47.00
2019-03-31T01:34:38.331Z,47.20
2019-03-31T01:35:44.098Z,46.95
2019-03-31T01:36:50.182Z,47.00
2019-03-31T01:37:56.530Z,45.99
2019-03-31T01:39:03.335Z,45.60
2019-03-31T01:40:09.600Z,46.58
2019-03-31T01:41:16.579Z,45.79
2019-03-31T01:42:23.467Z,46.56
2019-03-31T01:43:30.424Z,46.39
2019-03-31T01:44:37.478Z,46.71
2019-03-31T01:45:43.979Z,47.10
2019-03-31T01:46:50.551Z,47.05
2019-03-31T01:47:56.474Z,46.18
2019-03-31T01:49:02.782Z,47.75
2019-03-31T01:50:09.778Z,47.50
2019-03-31T01:51:15.546Z,47.66
2019-03-31T01:52:22.156Z,46.88
2019-03-31T01:53:28.993Z,46.21
2019-03-31T01:54:35.045Z,46.34
2019-03-31T01:55:40.859Z,46.42
2019-03-31T01:56:47.687Z,46.08
2019-03-31T01:57:54.174Z,46.16
2019-03-31T01:59:00.600Z,46.46
2019-03-31T02:00:10.323Z,46.42
2019-03-31T02:01:17.773Z,46.58
2019-03-31T02:02:28.130Z,47.16
2019-03-31T02:03:33.903Z,46.92
2019-03-31T02:04:40.538Z,46.48
2019-03-31T02:05:47.087Z,47.87
2019-03-31T02:06:53.026Z,47.46
2019-03-31T02:07:59.953Z,46.57
2019-03-31T02:09:06.371Z,46.73
2019-03-31T02:10:11.945Z,46.48
2019-03-31T02:11:18.170Z,46.72
2019-03-31T02:12:23.951Z,47.22
2019-03-31T02:13:30.475Z,46.92
2019-03-31T02:14:37.121Z,46.74
2019-03-31T02:15:42.882Z,46.56
2019-03-31T02:16:49.509Z,46.93
2019-03-31T02:17:55.536Z,47.09
2019-03-31T02:19:02.310Z,47.41
2019-03-31T02:20:08.523Z,47.38
2019-03-31T02:21:15.234Z,48.02
2019-03-31T02:22:22.006Z,47.72
2019-03-31T02:23:29.411Z,47.11
2019-03-31T02:24:36.646Z,47.31
2019-03-31T02:25:42.693Z,47.06
2019-03-31T02:26:49.569Z,47.01
2019-03-31T02:27:56.086Z,46.86
2019-03-31T02:29:03.002Z,47.31
2019-03-31T02:30:09.017Z,47.57
2019-03-31T02:31:14.782Z,46.89
2019-03-31T02:32:23.908Z,46.56
2019-03-31T02:33:29.419Z,47.70
2019-03-31T02:34:36.546Z,47.63
2019-03-31T02:35:42.051Z,47.06
2019-03-31T02:36:49.022Z,47.63
2019-03-31T02:37:55.343Z,47.74
2019-03-31T02:39:01.959Z,47.70
2019-03-31T02:40:07.766Z,46.78
2019-03-31T02:41:14.652Z,47.37
2019-03-31T02:42:21.232Z,48.28
2019-03-31T02:43:27.787Z,48.06
2019-03-31T02:44:33.512Z,47.68
2019-03-31T02:45:40.142Z,48.75
2019-03-31T02:46:46.646Z,49.31
2019-03-31T02:47:52.417Z,50.14
2019-03-31T02:48:58.979Z,49.30
2019-03-31T02:50:04.612Z,48.87
2019-03-31T02:51:11.349Z,49.12
2019-03-31T02:52:17.699Z,48.79
2019-03-31T02:53:24.263Z,48.07
2019-03-31T02:54:30.294Z,48.01
2019-03-31T02:55:37.202Z,48.49
2019-03-31T02:56:44.407Z,47.24
2019-03-31T02:57:50.856Z,47.98
2019-03-31T02:58:58.132Z,47.94
2019-03-31T03:00:04.638Z,47.57
2019-03-31T03:01:11.472Z,48.78
2019-03-31T03:02:17.876Z,48.28
2019-03-31T03:03:23.944Z,47.91
2019-03-31T03:04:30.810Z,48.04
2019-03-31T03:05:38.767Z,48.17
2019-03-31T03:06:45.216Z,47.82
2019-03-31T03:07:52.305Z,48.13
2019-03-31T03:09:00.367Z,47.83
2019-03-31T03:10:07.491Z,47.17
2019-03-31T03:11:18.018Z,46.58
2019-03-31T03:12:26.312Z,46.93
2019-03-31T03:13:33.820Z,47.96
2019-03-31T03:14:40.375Z,48.56
2019-03-31T03:16:11.404Z,48.55
2019-03-31T03:17:17.449Z,48.52
2019-03-31T03:18:23.509Z,48.48
2019-03-31T03:19:30.517Z,48.06
2019-03-31T03:20:36.570Z,48.34
2019-03-31T03:21:43.438Z,47.61
2019-03-31T03:22:50.057Z,48.05
2019-03-31T03:23:56.831Z,48.33
2019-03-31T03:25:03.285Z,48.16
2019-03-31T03:26:09.122Z,48.24
2019-03-31T03:27:15.723Z,47.84
2019-03-31T03:28:22.135Z,47.30
2019-03-31T03:29:28.818Z,47.14
2019-03-31T03:30:35.389Z,47.16
2019-03-31T03:31:42.604Z,47.97
2019-03-31T03:33:13.464Z,48.38
2019-03-31T03:33:57.069Z,48.30
2019-03-31T03:35:03.571Z,48.44
2019-03-31T03:36:09.361Z,48.04
2019-03-31T03:37:15.119Z,47.69
2019-03-31T03:38:21.173Z,47.49
2019-03-31T03:39:26.955Z,47.69
2019-03-31T03:40:33.396Z,47.44
2019-03-31T03:41:39.990Z,47.33
2019-03-31T03:42:46.525Z,47.19
2019-03-31T03:43:59.642Z,46.84
2019-03-31T03:45:01.073Z,46.93
2019-03-31T03:46:06.838Z,47.32
2019-03-31T03:47:13.402Z,47.47
2019-03-31T03:48:20.625Z,47.36
2019-03-31T03:49:28.268Z,47.41
2019-03-31T03:50:34.356Z,47.19
2019-03-31T03:51:41.275Z,48.22
2019-03-31T03:52:47.335Z,48.58
2019-03-31T03:53:54.259Z,49.31
2019-03-31T03:55:00.042Z,49.42
2019-03-31T03:56:05.746Z,49.48
2019-03-31T03:57:11.745Z,49.65
2019-03-31T03:58:17.243Z,49.09
2019-03-31T03:59:24.090Z,49.81
2019-03-31T04:00:31.777Z,49.40
2019-03-31T04:01:37.753Z,50.25
2019-03-31T04:02:43.552Z,49.75
2019-03-31T04:03:49.525Z,49.78
2019-03-31T04:04:56.797Z,49.67
2019-03-31T04:06:03.786Z,49.60
2019-03-31T04:07:10.659Z,49.30
2019-03-31T04:08:17.542Z,49.66
2019-03-31T04:09:23.873Z,49.85
2019-03-31T04:11:15.224Z,49.55
2019-03-31T04:12:20.762Z,49.47
2019-03-31T04:13:27.590Z,49.22
2019-03-31T04:14:34.159Z,48.92
2019-03-31T04:15:40.216Z,49.74
2019-03-31T04:16:46.893Z,48.80
2019-03-31T04:17:54.057Z,48.60
2019-03-31T04:19:00.779Z,48.80
2019-03-31T04:20:06.731Z,48.54
2019-03-31T04:21:13.095Z,48.51
2019-03-31T04:22:20.373Z,48.13
2019-03-31T04:23:26.396Z,48.23
2019-03-31T04:24:34.185Z,48.46
2019-03-31T04:25:41.859Z,47.82
2019-03-31T04:26:47.684Z,47.18
2019-03-31T04:27:53.640Z,47.45
2019-03-31T04:28:59.416Z,48.54
2019-03-31T04:30:05.214Z,48.71
2019-03-31T04:31:11.275Z,49.04
2019-03-31T04:32:17.051Z,49.44
2019-03-31T04:33:23.967Z,48.92
2019-03-31T04:34:30.643Z,49.80
2019-03-31T04:35:37.177Z,49.67
2019-03-31T04:36:43.924Z,49.37
2019-03-31T04:37:49.974Z,49.31
2019-03-31T04:38:59.919Z,48.90
2019-03-31T04:40:04.202Z,48.61
2019-03-31T04:41:10.577Z,48.63
2019-03-31T04:42:16.248Z,49.02
2019-03-31T04:43:22.447Z,48.25
2019-03-31T04:44:29.153Z,48.09
2019-03-31T04:45:34.928Z,47.78
2019-03-31T04:46:41.300Z,47.58
2019-03-31T04:47:48.600Z,47.93
2019-03-31T04:48:56.784Z,48.39
2019-03-31T04:50:04.334Z,47.87
2019-03-31T04:51:10.327Z,48.33
2019-03-31T04:52:16.001Z,48.12
2019-03-31T04:53:22.015Z,47.98
2019-03-31T04:54:28.533Z,47.96
2019-03-31T04:55:35.808Z,47.92
2019-03-31T04:56:41.747Z,48.57
2019-03-31T04:57:48.596Z,48.60
2019-03-31T04:58:55.043Z,48.50
2019-03-31T05:00:02.115Z,48.28
2019-03-31T05:01:08.672Z,48.17
2019-03-31T05:02:14.359Z,49.11
2019-03-31T05:03:21.053Z,49.09
2019-03-31T05:04:30.768Z,49.52
2019-03-31T05:05:36.288Z,49.45
2019-03-31T05:06:45.320Z,49.80
2019-03-31T05:07:52.055Z,49.82
2019-03-31T05:08:58.741Z,49.56
2019-03-31T05:10:05.474Z,49.09
2019-03-31T05:11:12.327Z,49.95
2019-03-31T05:12:18.862Z,49.23
2019-03-31T05:13:25.151Z,49.15
2019-03-31T05:14:32.728Z,49.83
2019-03-31T05:15:40.706Z,49.61
2019-03-31T05:16:46.753Z,49.48
2019-03-31T05:17:53.863Z,48.46
2019-03-31T05:19:00.599Z,48.29
2019-03-31T05:20:06.515Z,48.44
2019-03-31T05:21:13.141Z,48.42
2019-03-31T05:22:19.823Z,48.68
2019-03-31T05:23:27.984Z,48.61
2019-03-31T05:24:34.833Z,48.40
2019-03-31T05:25:42.004Z,48.92
2019-03-31T05:26:49.077Z,48.89
2019-03-31T05:27:55.982Z,49.73
2019-03-31T05:29:01.759Z,48.66
2019-03-31T05:30:07.928Z,48.33
2019-03-31T05:31:14.063Z,48.81
2019-03-31T05:32:21.153Z,48.67
2019-03-31T05:33:28.016Z,49.04
2019-03-31T05:34:34.899Z,49.36
2019-03-31T05:35:40.656Z,48.80
2019-03-31T05:36:46.544Z,49.01
2019-03-31T05:37:53.097Z,48.91
2019-03-31T05:38:58.873Z,49.37
2019-03-31T05:40:04.662Z,48.66
2019-03-31T05:41:10.594Z,48.63
2019-03-31T05:42:17.431Z,49.83
2019-03-31T05:43:24.353Z,49.75
2019-03-31T05:44:30.552Z,48.88
2019-03-31T05:45:36.518Z,48.66
2019-03-31T05:46:43.466Z,48.45
2019-03-31T05:47:50.236Z,48.41
2019-03-31T05:48:57.716Z,48.89
2019-03-31T05:50:04.492Z,49.34
2019-03-31T05:51:10.832Z,49.05
2019-03-31T05:52:17.066Z,48.84
2019-03-31T05:53:22.795Z,48.22
2019-03-31T05:54:29.644Z,48.06
2019-03-31T05:55:35.513Z,48.28
2019-03-31T05:56:41.547Z,47.61
2019-03-31T05:57:47.896Z,47.63
2019-03-31T05:58:54.421Z,47.58
2019-03-31T06:00:01.365Z,47.93
2019-03-31T06:01:07.709Z,47.82
2019-03-31T06:02:14.260Z,47.94
2019-03-31T06:03:19.799Z,47.77
2019-03-31T06:04:33.135Z,48.47
2019-03-31T06:05:35.646Z,48.56
2019-03-31T06:06:42.776Z,48.74
2019-03-31T06:07:48.894Z,48.15
2019-03-31T06:08:55.431Z,48.73
2019-03-31T06:10:01.524Z,49.17
2019-03-31T06:11:07.485Z,48.44
2019-03-31T06:12:14.806Z,48.09
2019-03-31T06:13:21.096Z,48.05
2019-03-31T06:14:26.858Z,47.63
2019-03-31T06:15:32.646Z,47.63
2019-03-31T06:16:38.416Z,47.60
2019-03-31T06:17:45.153Z,47.60
2019-03-31T06:18:52.026Z,47.58
2019-03-31T06:19:57.779Z,48.37
2019-03-31T06:21:04.157Z,47.40
2019-03-31T06:22:10.808Z,46.97
2019-03-31T06:23:17.438Z,46.72
2019-03-31T06:24:23.603Z,46.38
2019-03-31T06:25:30.481Z,45.95
2019-03-31T06:26:36.180Z,46.89
2019-03-31T06:27:42.633Z,46.99
2019-03-31T06:28:49.289Z,47.44
2019-03-31T06:29:55.958Z,46.98
2019-03-31T06:31:02.488Z,46.94
2019-03-31T06:32:09.403Z,46.64
2019-03-31T06:33:15.433Z,46.46
2019-03-31T06:34:22.585Z,46.24
2019-03-31T06:35:28.074Z,45.81
2019-03-31T06:36:34.212Z,45.98
2019-03-31T06:37:40.783Z,45.47
2019-03-31T06:38:47.645Z,45.61
2019-03-31T06:39:54.897Z,45.24
2019-03-31T06:41:01.218Z,44.92
2019-03-31T06:42:06.891Z,44.67
2019-03-31T06:43:12.608Z,44.73
2019-03-31T06:44:18.346Z,44.35
2019-03-31T06:45:24.502Z,44.49
2019-03-31T06:46:30.626Z,44.30
2019-03-31T06:47:36.237Z,44.06
2019-03-31T06:48:42.594Z,43.98
2019-03-31T06:49:48.762Z,43.36
2019-03-31T06:50:55.691Z,43.82
2019-03-31T06:52:02.386Z,44.00
2019-03-31T06:53:08.155Z,44.10
2019-03-31T06:54:14.964Z,43.57
2019-03-31T06:55:20.646Z,44.91
2019-03-31T06:56:27.083Z,44.36
2019-03-31T06:57:33.374Z,43.84
2019-03-31T06:58:39.019Z,43.91
2019-03-31T06:59:45.289Z,43.47
2019-03-31T07:00:51.365Z,43.40
2019-03-31T07:01:58.786Z,42.67
2019-03-31T07:03:04.571Z,43.42
2019-03-31T07:04:10.600Z,44.39
2019-03-31T07:05:16.407Z,43.03
2019-03-31T07:06:23.356Z,42.42
2019-03-31T07:07:29.896Z,42.38
2019-03-31T07:08:37.273Z,41.60
2019-03-31T07:09:43.574Z,42.59
2019-03-31T07:10:50.111Z,42.00
2019-03-31T07:11:56.024Z,41.60
2019-03-31T07:13:02.011Z,41.25
2019-03-31T07:14:09.356Z,41.42
2019-03-31T07:15:21.759Z,40.54
2019-03-31T07:16:28.756Z,40.06
2019-03-31T07:17:36.194Z,40.37
2019-03-31T07:18:43.014Z,39.81
2019-03-31T07:19:49.351Z,39.26
2019-03-31T07:20:56.208Z,39.01
2019-03-31T07:22:01.993Z,39.68
2019-03-31T07:23:08.811Z,39.30
2019-03-31T07:24:15.653Z,39.30
2019-03-31T07:25:21.182Z,38.08
2019-03-31T07:26:28.002Z,38.63
2019-03-31T07:27:34.836Z,38.03
2019-03-31T07:28:41.423Z,37.83
2019-03-31T07:29:48.902Z,37.61
2019-03-31T07:30:55.414Z,37.17
2019-03-31T07:32:02.958Z,37.30
2019-03-31T07:33:08.730Z,36.51
2019-03-31T07:34:15.040Z,36.46
2019-03-31T07:35:20.801Z,36.49
2019-03-31T07:36:27.468Z,36.26
2019-03-31T07:37:46.731Z,36.27
2019-03-31T07:38:41.952Z,36.41
2019-03-31T07:39:48.948Z,36.08
2019-03-31T07:40:55.481Z,36.36
2019-03-31T07:42:03.009Z,36.50
2019-03-31T07:43:09.975Z,35.73
2019-03-31T07:44:15.735Z,35.03
2019-03-31T07:45:21.526Z,33.99
2019-03-31T07:46:27.744Z,33.88
2019-03-31T07:47:33.814Z,34.38
2019-03-31T07:48:40.410Z,34.63
2019-03-31T07:49:46.151Z,33.87
2019-03-31T07:50:51.927Z,33.86
2019-03-31T07:51:57.957Z,32.68
2019-03-31T07:53:05.230Z,31.22
2019-03-31T07:54:11.677Z,29.85
2019-03-31T07:55:19.611Z,28.19
2019-03-31T07:56:25.999Z,27.01
2019-03-31T07:57:32.717Z,26.03
2019-03-31T07:58:38.874Z,25.30
2019-03-31T07:59:45.260Z,24.71
2019-03-31T08:00:50.895Z,24.19
2019-03-31T08:01:57.080Z,24.44
2019-03-31T08:03:03.895Z,23.99
2019-03-31T08:04:09.601Z,23.61
2019-03-31T08:05:15.821Z,22.48
2019-03-31T08:06:24.520Z,22.57
2019-03-31T08:07:31.047Z,22.70
2019-03-31T08:08:37.179Z,23.17
2019-03-31T08:09:43.414Z,22.37
2019-03-31T08:10:49.164Z,21.99
2019-03-31T08:11:56.027Z,21.66
2019-03-31T08:13:01.662Z,21.60
2019-03-31T08:14:07.678Z,21.32
2019-03-31T08:15:13.632Z,21.66
2019-03-31T08:16:20.145Z,22.78
2019-03-31T08:17:28.427Z,22.04
2019-03-31T08:18:35.014Z,22.47
2019-03-31T08:19:41.844Z,23.26
2019-03-31T08:20:48.661Z,23.01
2019-03-31T08:21:54.955Z,23.13
2019-03-31T08:23:01.444Z,22.99
2019-03-31T08:24:07.200Z,23.38
2019-03-31T08:25:16.255Z,24.07
2019-03-31T08:26:23.071Z,23.66
2019-03-31T08:27:28.820Z,24.35
2019-03-31T08:28:34.845Z,23.49
2019-03-31T08:29:41.508Z,22.65
2019-03-31T08:30:49.204Z,24.10
2019-03-31T08:31:55.947Z,23.30
2019-03-31T08:33:02.126Z,23.58
2019-03-31T08:34:07.880Z,23.39
2019-03-31T08:35:13.751Z,22.71
2019-03-31T08:36:19.885Z,22.31
2019-03-31T08:37:25.987Z,21.83
2019-03-31T08:38:32.620Z,22.02
2019-03-31T08:39:40.578Z,21.65
2019-03-31T08:40:46.784Z,22.22
2019-03-31T08:41:53.577Z,21.57
2019-03-31T08:42:59.423Z,23.15
2019-03-31T08:44:05.452Z,24.15
2019-03-31T08:45:12.884Z,22.14
2019-03-31T08:46:19.700Z,23.78
2019-03-31T08:47:25.294Z,25.40
2019-03-31T08:48:32.953Z,26.73
2019-03-31T08:49:39.841Z,27.08
2019-03-31T08:50:46.697Z,27.65
2019-03-31T08:51:54.864Z,29.66
2019-03-31T08:54:16.438Z,29.05
2019-03-31T08:55:22.424Z,29.75
2019-03-31T08:56:28.270Z,30.13
2019-03-31T08:57:34.859Z,29.96
2019-03-31T08:58:41.493Z,30.70
2019-03-31T08:59:48.217Z,30.06
2019-03-31T09:00:57.430Z,28.15
2019-03-31T09:02:22.075Z,29.71
2019-03-31T09:03:28.659Z,30.96
2019-03-31T09:04:34.425Z,32.54
2019-03-31T09:05:40.611Z,31.98
2019-03-31T09:06:47.147Z,32.75
2019-03-31T09:07:53.112Z,33.47
2019-03-31T09:08:58.817Z,33.54
2019-03-31T09:10:05.287Z,34.26
2019-03-31T09:11:11.703Z,34.48
2019-03-31T09:12:17.448Z,34.48
2019-03-31T09:13:24.039Z,34.80
2019-03-31T09:14:30.670Z,35.05
2019-03-31T09:15:38.314Z,35.80
2019-03-31T09:16:44.355Z,36.48
2019-03-31T09:17:50.121Z,36.25
2019-03-31T09:18:55.875Z,36.30
2019-03-31T09:20:02.961Z,37.10
2019-03-31T09:21:10.534Z,37.59
2019-03-31T09:22:17.238Z,37.45
2019-03-31T09:23:22.969Z,37.54
2019-03-31T09:24:29.073Z,37.77
2019-03-31T09:25:35.187Z,37.86
2019-03-31T09:26:41.041Z,40.03
2019-03-31T09:27:47.256Z,39.55
2019-03-31T09:28:53.789Z,39.70
2019-03-31T09:30:00.279Z,39.31
2019-03-31T09:31:06.043Z,39.71
2019-03-31T09:32:12.656Z,39.71
2019-03-31T09:33:19.111Z,40.41
2019-03-31T09:34:26.092Z,41.12
2019-03-31T09:35:32.795Z,40.92
2019-03-31T09:36:38.613Z,40.97
2019-03-31T09:37:44.736Z,41.59
2019-03-31T09:38:51.727Z,41.22
2019-03-31T09:39:58.418Z,41.00
2019-03-31T09:41:04.810Z,41.24
2019-03-31T09:42:11.731Z,40.87
2019-03-31T09:43:17.190Z,41.41
2019-03-31T09:44:24.165Z,41.50
2019-03-31T09:45:31.178Z,40.83
2019-03-31T09:46:37.201Z,40.99
2019-03-31T09:47:43.827Z,41.45
2019-03-31T09:48:49.641Z,41.94
2019-03-31T09:49:56.374Z,41.46
2019-03-31T09:51:02.153Z,41.38
2019-03-31T09:52:08.208Z,41.32
2019-03-31T09:53:16.018Z,41.09
2019-03-31T09:54:22.679Z,41.73
2019-03-31T09:55:29.207Z,41.32
2019-03-31T09:56:37.090Z,41.39
2019-03-31T09:57:44.904Z,41.84
2019-03-31T09:58:51.972Z,41.37
2019-03-31T09:59:58.171Z,41.68
2019-03-31T10:01:07.919Z,42.17
2019-03-31T10:02:12.897Z,41.61
2019-03-31T10:03:19.482Z,42.29
2019-03-31T10:04:25.327Z,41.81
2019-03-31T10:05:32.313Z,42.68
2019-03-31T10:06:39.028Z,41.90
2019-03-31T10:07:46.272Z,41.92
2019-03-31T10:08:53.515Z,42.24
2019-03-31T10:09:59.350Z,42.21
2019-03-31T10:11:05.923Z,42.47
2019-03-31T10:12:11.951Z,42.07
2019-03-31T10:13:17.908Z,41.72
2019-03-31T10:14:24.437Z,41.22
2019-03-31T10:15:31.080Z,41.63
2019-03-31T10:16:37.682Z,41.36
2019-03-31T10:17:43.925Z,41.48
2019-03-31T10:18:50.254Z,41.91
2019-03-31T10:19:56.499Z,41.53
2019-03-31T10:21:02.964Z,41.29
2019-03-31T10:22:08.779Z,42.25
2019-03-31T10:23:15.169Z,42.05
2019-03-31T10:24:20.906Z,41.79
2019-03-31T10:25:26.675Z,42.28
2019-03-31T10:26:32.614Z,42.60
2019-03-31T10:27:39.440Z,42.52
2019-03-31T10:28:45.233Z,42.58
2019-03-31T10:29:51.548Z,43.24
2019-03-31T10:30:57.305Z,43.29
2019-03-31T10:32:03.350Z,42.54
2019-03-31T10:33:09.905Z,42.98
2019-03-31T10:34:16.223Z,42.67
2019-03-31T10:35:22.579Z,43.22
2019-03-31T10:36:43.490Z,42.58
2019-03-31T10:37:37.606Z,43.16
2019-03-31T10:38:44.965Z,42.69
2019-03-31T10:39:51.132Z,43.49
2019-03-31T10:40:58.738Z,43.14
2019-03-31T10:42:04.766Z,42.87
2019-03-31T10:43:11.335Z,42.60
2019-03-31T10:44:17.387Z,42.60
2019-03-31T10:45:23.155Z,43.11
2019-03-31T10:46:30.884Z,42.64
2019-03-31T10:47:37.873Z,43.32
2019-03-31T10:48:45.758Z,42.84
2019-03-31T10:49:52.297Z,42.89
2019-03-31T10:50:58.338Z,42.60
2019-03-31T10:52:03.873Z,42.32
2019-03-31T10:53:09.960Z,42.52
2019-03-31T10:54:16.269Z,42.23
2019-03-31T10:55:21.977Z,41.78
2019-03-31T10:56:28.264Z,41.51
2019-03-31T10:57:34.307Z,42.77
2019-03-31T10:58:40.251Z,42.41
2019-03-31T10:59:46.275Z,42.20
2019-03-31T11:00:52.590Z,41.69
2019-03-31T11:01:59.246Z,42.18
2019-03-31T11:03:07.489Z,42.72
2019-03-31T11:04:14.123Z,43.16
2019-03-31T11:05:25.798Z,42.60
2019-03-31T11:06:32.161Z,42.67
2019-03-31T11:07:38.608Z,41.89
2019-03-31T11:08:48.258Z,41.93
2019-03-31T11:09:54.506Z,41.86
2019-03-31T11:11:00.597Z,42.07
2019-03-31T11:12:07.151Z,42.48
2019-03-31T11:13:12.976Z,41.27
2019-03-31T11:14:19.038Z,40.83
2019-03-31T11:15:24.803Z,40.99
2019-03-31T11:16:31.621Z,41.01
2019-03-31T11:17:37.899Z,40.08
2019-03-31T11:18:44.687Z,40.08
2019-03-31T11:19:51.233Z,39.85
2019-03-31T11:20:59.164Z,40.54
2019-03-31T11:22:22.934Z,39.89
2019-03-31T11:23:31.138Z,39.80
2019-03-31T11:24:38.570Z,38.76
2019-03-31T11:25:44.357Z,38.55
2019-03-31T11:26:50.975Z,38.74
2019-03-31T11:27:58.591Z,37.64
2019-03-31T11:29:05.150Z,38.18
2019-03-31T11:30:11.219Z,38.21
2019-03-31T11:31:18.074Z,37.66
2019-03-31T11:32:25.959Z,37.81
2019-03-31T11:33:32.041Z,37.37
2019-03-31T11:34:39.602Z,37.16
2019-03-31T11:35:45.610Z,36.86
2019-03-31T11:36:51.042Z,36.63
2019-03-31T11:37:57.965Z,35.49
2019-03-31T11:39:06.854Z,34.70
2019-03-31T11:40:14.247Z,35.05
2019-03-31T11:41:20.779Z,34.16
2019-03-31T11:42:27.587Z,33.27
2019-03-31T11:43:33.847Z,33.65
2019-03-31T11:44:39.842Z,32.41
2019-03-31T11:45:49.311Z,31.21
2019-03-31T11:46:55.210Z,30.80
2019-03-31T11:48:00.959Z,28.77
2019-03-31T11:49:07.367Z,25.35
2019-03-31T11:50:13.188Z,23.58
2019-03-31T11:51:19.782Z,23.01
2019-03-31T11:52:25.827Z,22.18
2019-03-31T11:53:32.653Z,21.58
2019-03-31T11:54:38.804Z,20.77
2019-03-31T11:55:45.295Z,20.72
2019-03-31T11:56:50.956Z,21.12
2019-03-31T11:57:57.380Z,19.83
2019-03-31T11:59:02.879Z,19.57
2019-03-31T12:00:12.012Z,19.46
2019-03-31T12:01:17.516Z,18.58
2019-03-31T12:02:27.447Z,17.92
2019-03-31T12:03:32.047Z,17.13
2019-03-31T12:04:38.945Z,18.09
2019-03-31T12:05:45.973Z,17.99
2019-03-31T12:06:52.652Z,18.76
2019-03-31T12:07:59.141Z,18.52
2019-03-31T12:09:06.571Z,18.53
2019-03-31T12:10:13.710Z,18.20
2019-03-31T12:11:20.795Z,18.99
2019-03-31T12:12:28.371Z,18.63
2019-03-31T12:13:33.967Z,17.60
2019-03-31T12:14:39.545Z,17.90
2019-03-31T12:15:46.180Z,17.64
2019-03-31T12:16:52.093Z,17.56
2019-03-31T12:17:58.997Z,17.58
2019-03-31T12:19:05.824Z,17.29
2019-03-31T12:20:12.720Z,18.44
2019-03-31T12:21:18.940Z,18.33
2019-03-31T12:22:24.601Z,17.06
2019-03-31T12:23:31.468Z,18.22
2019-03-31T12:24:38.140Z,17.42
2019-03-31T12:25:44.592Z,18.39
2019-03-31T12:26:51.551Z,18.95
2019-03-31T12:27:57.018Z,18.72
2019-03-31T12:29:03.567Z,17.99
2019-03-31T12:30:09.758Z,17.92
2019-03-31T12:31:16.888Z,17.12
2019-03-31T12:32:24.264Z,18.04
2019-03-31T12:33:31.163Z,19.60
2019-03-31T12:34:37.246Z,19.50
2019-03-31T12:35:43.316Z,20.87
2019-03-31T12:36:50.164Z,22.56
2019-03-31T12:37:55.910Z,24.62
2019-03-31T12:39:01.655Z,25.16
2019-03-31T12:40:07.817Z,26.35
2019-03-31T12:41:14.711Z,26.31
2019-03-31T12:42:20.695Z,26.96
2019-03-31T12:43:27.262Z,27.90
2019-03-31T12:44:32.938Z,27.81
2019-03-31T12:45:42.824Z,27.64
2019-03-31T12:46:47.662Z,27.63
2019-03-31T12:47:54.175Z,27.02
2019-03-31T12:48:59.871Z,29.09
2019-03-31T12:50:05.994Z,28.99
2019-03-31T12:51:11.490Z,28.78
2019-03-31T12:52:18.826Z,28.92
2019-03-31T12:53:25.450Z,29.32
2019-03-31T12:54:32.296Z,29.79
2019-03-31T12:55:39.496Z,29.80
2019-03-31T12:56:45.153Z,29.49
2019-03-31T12:57:52.033Z,30.33
2019-03-31T12:58:58.395Z,30.03
2019-03-31T13:00:04.380Z,29.97
2019-03-31T13:01:11.220Z,30.90
2019-03-31T13:02:18.027Z,30.94
2019-03-31T13:03:24.603Z,31.75
2019-03-31T13:04:30.629Z,31.68
2019-03-31T13:05:37.570Z,31.17
2019-03-31T13:06:47.023Z,31.02
2019-03-31T13:07:56.561Z,31.19
2019-03-31T13:09:02.317Z,31.37
2019-03-31T13:10:08.649Z,31.11
2019-03-31T13:11:14.708Z,30.58
2019-03-31T13:12:21.731Z,31.08
2019-03-31T13:13:28.255Z,31.15
2019-03-31T13:14:34.824Z,32.84
2019-03-31T13:15:41.696Z,33.42
2019-03-31T13:16:48.359Z,33.92
2019-03-31T13:17:54.841Z,32.36
2019-03-31T13:19:00.837Z,32.11
2019-03-31T13:20:07.318Z,32.18
2019-03-31T13:21:13.071Z,32.24
2019-03-31T13:22:19.675Z,31.71
2019-03-31T13:23:26.279Z,31.66
2019-03-31T13:24:33.612Z,32.79
2019-03-31T13:25:41.417Z,31.89
2019-03-31T13:26:47.487Z,32.53
2019-03-31T13:27:53.258Z,32.34
2019-03-31T13:28:59.700Z,32.27
2019-03-31T13:30:06.726Z,32.97
2019-03-31T13:31:12.683Z,32.18
2019-03-31T13:32:19.667Z,32.07
2019-03-31T13:33:26.412Z,31.69
2019-03-31T13:34:32.988Z,31.93
2019-03-31T13:35:41.966Z,31.89
2019-03-31T13:36:47.735Z,31.65
2019-03-31T13:37:54.544Z,31.76
2019-03-31T13:39:01.484Z,33.11
2019-03-31T13:40:08.312Z,33.65
2019-03-31T13:41:14.833Z,32.18
2019-03-31T13:42:20.501Z,32.74
2019-03-31T13:43:26.914Z,32.39
2019-03-31T13:44:34.296Z,32.01
2019-03-31T13:45:41.649Z,32.29
2019-03-31T13:46:47.752Z,32.25
2019-03-31T13:47:54.380Z,31.97
2019-03-31T13:49:00.870Z,31.79
2019-03-31T13:50:07.156Z,31.52
2019-03-31T13:51:13.665Z,31.71
2019-03-31T13:52:19.644Z,31.62
2019-03-31T13:53:25.901Z,32.01
2019-03-31T13:54:31.748Z,31.63
2019-03-31T13:55:37.594Z,31.12
2019-03-31T13:56:48.740Z,31.25
2019-03-31T13:57:54.384Z,32.26
2019-03-31T13:59:01.427Z,31.73
2019-03-31T14:00:09.142Z,30.90
2019-03-31T14:01:15.798Z,31.24
2019-03-31T14:02:21.837Z,31.26
2019-03-31T14:03:28.458Z,31.33
2019-03-31T14:04:45.301Z,31.47
2019-03-31T14:05:43.911Z,31.38
2019-03-31T14:06:50.475Z,31.38
2019-03-31T14:07:56.598Z,32.90
2019-03-31T14:09:05.317Z,32.07
2019-03-31T14:10:11.288Z,31.96
2019-03-31T14:11:21.505Z,31.71
2019-03-31T14:12:25.869Z,31.74
2019-03-31T14:13:31.613Z,32.75
2019-03-31T14:14:38.211Z,32.85
2019-03-31T14:15:43.689Z,32.54
2019-03-31T14:16:49.599Z,32.30
2019-03-31T14:17:55.699Z,32.96
2019-03-31T14:19:02.422Z,32.15
2019-03-31T14:20:08.197Z,31.90
2019-03-31T14:21:14.234Z,31.63
2019-03-31T14:22:21.534Z,31.56